sensor_id;sensor_type;location;lat;lon;timestamp;P1;durP1;ratioP1;P2;durP2;ratioP2
37973;SDS011;23796;51.458;7.000;2023-05-07T00:01:00;6.43;;;4.10;;
37973;SDS011;23796;51.458;7.000;2023-05-07T00:03:26;6.40;;;4.30;;
37973;SDS011;23796;51.458;7.000;2023-05-07T00:05:53;6.10;;;4.18;;
37973;SDS011;23796;51.458;7.000;2023-05-07T00:08:19;6.68;;;4.20;;
37973;SDS011;23796;51.458;7.000;2023-05-07T00:10:45;5.93;;;4.60;;
37973;SDS011;23796;51.458;7.000;2023-05-07T00:13:11;7.05;;;4.43;;
37973;SDS011;23796;51.458;7.000;2023-05-07T00:15:39;7.28;;;4.32;;
37973;SDS011;23796;51.458;7.000;2023-05-07T00:18:05;5.80;;;4.18;;
37973;SDS011;23796;51.458;7.000;2023-05-07T00:20:31;7.47;;;4.20;;
37973;SDS011;23796;51.458;7.000;2023-05-07T00:22:56;7.63;;;4.80;;
37973;SDS011;23796;51.458;7.000;2023-05-07T00:25:24;7.38;;;4.45;;
37973;SDS011;23796;51.458;7.000;2023-05-07T00:27:52;6.50;;;5.00;;
37973;SDS011;23796;51.458;7.000;2023-05-07T00:30:18;6.05;;;4.55;;
37973;SDS011;23796;51.458;7.000;2023-05-07T00:32:46;6.85;;;5.00;;
37973;SDS011;23796;51.458;7.000;2023-05-07T00:35:15;6.45;;;4.90;;
37973;SDS011;23796;51.458;7.000;2023-05-07T00:37:43;7.85;;;5.47;;
37973;SDS011;23796;51.458;7.000;2023-05-07T00:40:09;7.22;;;5.50;;
37973;SDS011;23796;51.458;7.000;2023-05-07T00:42:37;6.20;;;4.63;;
37973;SDS011;23796;51.458;7.000;2023-05-07T00:45:03;7.32;;;5.40;;
37973;SDS011;23796;51.458;7.000;2023-05-07T00:47:29;5.82;;;4.50;;
37973;SDS011;23796;51.458;7.000;2023-05-07T00:49:56;7.13;;;5.38;;
37973;SDS011;23796;51.458;7.000;2023-05-07T00:52:22;6.50;;;4.80;;
37973;SDS011;23796;51.458;7.000;2023-05-07T00:54:50;6.53;;;5.25;;
37973;SDS011;23796;51.458;7.000;2023-05-07T00:57:17;5.95;;;4.93;;
37973;SDS011;23796;51.458;7.000;2023-05-07T00:59:42;7.95;;;5.07;;
37973;SDS011;23796;51.458;7.000;2023-05-07T01:02:08;6.82;;;5.50;;
37973;SDS011;23796;51.458;7.000;2023-05-07T01:04:34;7.38;;;5.05;;
37973;SDS011;23796;51.458;7.000;2023-05-07T01:07:00;7.47;;;5.80;;
37973;SDS011;23796;51.458;7.000;2023-05-07T01:09:27;6.65;;;5.03;;
37973;SDS011;23796;51.458;7.000;2023-05-07T01:11:53;6.20;;;5.43;;
37973;SDS011;23796;51.458;7.000;2023-05-07T01:14:23;6.65;;;4.63;;
37973;SDS011;23796;51.458;7.000;2023-05-07T01:16:53;6.35;;;4.78;;
37973;SDS011;23796;51.458;7.000;2023-05-07T01:19:19;5.95;;;4.63;;
37973;SDS011;23796;51.458;7.000;2023-05-07T01:21:46;6.82;;;4.50;;
37973;SDS011;23796;51.458;7.000;2023-05-07T01:24:13;6.35;;;4.50;;
37973;SDS011;23796;51.458;7.000;2023-05-07T01:26:39;6.43;;;5.25;;
37973;SDS011;23796;51.458;7.000;2023-05-07T01:29:05;7.30;;;5.05;;
37973;SDS011;23796;51.458;7.000;2023-05-07T01:31:33;6.18;;;5.20;;
37973;SDS011;23796;51.458;7.000;2023-05-07T01:34:01;6.88;;;4.72;;
37973;SDS011;23796;51.458;7.000;2023-05-07T01:36:29;6.00;;;4.90;;
37973;SDS011;23796;51.458;7.000;2023-05-07T01:38:56;5.85;;;4.65;;
37973;SDS011;23796;51.458;7.000;2023-05-07T01:41:23;6.93;;;5.18;;
37973;SDS011;23796;51.458;7.000;2023-05-07T01:43:54;5.68;;;4.65;;
37973;SDS011;23796;51.458;7.000;2023-05-07T01:46:22;6.70;;;4.68;;
37973;SDS011;23796;51.458;7.000;2023-05-07T01:48:49;6.65;;;5.25;;
37973;SDS011;23796;51.458;7.000;2023-05-07T01:51:15;8.70;;;5.25;;
37973;SDS011;23796;51.458;7.000;2023-05-07T01:53:41;5.28;;;4.30;;
37973;SDS011;23796;51.458;7.000;2023-05-07T01:56:08;6.70;;;4.80;;
37973;SDS011;23796;51.458;7.000;2023-05-07T01:58:39;5.90;;;4.88;;
37973;SDS011;23796;51.458;7.000;2023-05-07T02:01:06;6.13;;;4.93;;
37973;SDS011;23796;51.458;7.000;2023-05-07T02:03:34;7.28;;;4.57;;
37973;SDS011;23796;51.458;7.000;2023-05-07T02:06:00;5.25;;;3.97;;
37973;SDS011;23796;51.458;7.000;2023-05-07T02:08:26;6.97;;;5.07;;
37973;SDS011;23796;51.458;7.000;2023-05-07T02:10:52;6.70;;;5.18;;
37973;SDS011;23796;51.458;7.000;2023-05-07T02:13:18;6.85;;;5.00;;
37973;SDS011;23796;51.458;7.000;2023-05-07T02:15:44;6.68;;;4.97;;
37973;SDS011;23796;51.458;7.000;2023-05-07T02:18:14;7.60;;;4.55;;
37973;SDS011;23796;51.458;7.000;2023-05-07T02:20:40;6.07;;;4.65;;
37973;SDS011;23796;51.458;7.000;2023-05-07T02:23:06;5.75;;;4.45;;
37973;SDS011;23796;51.458;7.000;2023-05-07T02:25:34;5.72;;;4.55;;
37973;SDS011;23796;51.458;7.000;2023-05-07T02:28:02;7.13;;;4.82;;
37973;SDS011;23796;51.458;7.000;2023-05-07T02:30:28;7.20;;;5.50;;
37973;SDS011;23796;51.458;7.000;2023-05-07T02:32:58;8.25;;;5.32;;
37973;SDS011;23796;51.458;7.000;2023-05-07T02:35:24;7.85;;;6.10;;
37973;SDS011;23796;51.458;7.000;2023-05-07T02:37:50;8.15;;;6.72;;
37973;SDS011;23796;51.458;7.000;2023-05-07T02:40:16;8.00;;;6.85;;
37973;SDS011;23796;51.458;7.000;2023-05-07T02:42:44;8.18;;;6.90;;
37973;SDS011;23796;51.458;7.000;2023-05-07T02:45:10;7.50;;;6.60;;
37973;SDS011;23796;51.458;7.000;2023-05-07T02:47:35;8.00;;;6.85;;
37973;SDS011;23796;51.458;7.000;2023-05-07T02:50:01;6.93;;;6.10;;
37973;SDS011;23796;51.458;7.000;2023-05-07T02:52:27;6.97;;;6.25;;
37973;SDS011;23796;51.458;7.000;2023-05-07T02:54:53;8.38;;;7.43;;
37973;SDS011;23796;51.458;7.000;2023-05-07T02:57:18;9.57;;;8.45;;
37973;SDS011;23796;51.458;7.000;2023-05-07T02:59:44;8.65;;;7.80;;
37973;SDS011;23796;51.458;7.000;2023-05-07T03:02:09;9.27;;;8.38;;
37973;SDS011;23796;51.458;7.000;2023-05-07T03:04:38;9.25;;;8.30;;
37973;SDS011;23796;51.458;7.000;2023-05-07T03:07:04;9.90;;;8.90;;
37973;SDS011;23796;51.458;7.000;2023-05-07T03:09:32;10.95;;;9.27;;
37973;SDS011;23796;51.458;7.000;2023-05-07T03:11:57;10.68;;;9.57;;
37973;SDS011;23796;51.458;7.000;2023-05-07T03:14:23;10.60;;;9.60;;
37973;SDS011;23796;51.458;7.000;2023-05-07T03:16:49;10.15;;;9.15;;
37973;SDS011;23796;51.458;7.000;2023-05-07T03:19:15;9.93;;;8.90;;
37973;SDS011;23796;51.458;7.000;2023-05-07T03:21:43;11.23;;;10.07;;
37973;SDS011;23796;51.458;7.000;2023-05-07T03:24:13;10.88;;;9.77;;
37973;SDS011;23796;51.458;7.000;2023-05-07T03:26:39;11.30;;;10.13;;
37973;SDS011;23796;51.458;7.000;2023-05-07T03:29:07;10.18;;;9.13;;
37973;SDS011;23796;51.458;7.000;2023-05-07T03:31:33;10.10;;;8.40;;
37973;SDS011;23796;51.458;7.000;2023-05-07T03:34:01;10.13;;;9.07;;
37973;SDS011;23796;51.458;7.000;2023-05-07T03:36:26;10.32;;;9.30;;
37973;SDS011;23796;51.458;7.000;2023-05-07T03:38:54;9.98;;;8.98;;
37973;SDS011;23796;51.458;7.000;2023-05-07T03:41:20;11.00;;;9.90;;
37973;SDS011;23796;51.458;7.000;2023-05-07T03:43:45;11.27;;;10.18;;
37973;SDS011;23796;51.458;7.000;2023-05-07T03:46:11;11.55;;;9.48;;
37973;SDS011;23796;51.458;7.000;2023-05-07T03:48:38;12.30;;;10.38;;
37973;SDS011;23796;51.458;7.000;2023-05-07T03:51:04;11.25;;;10.15;;
37973;SDS011;23796;51.458;7.000;2023-05-07T03:53:30;10.35;;;9.35;;
37973;SDS011;23796;51.458;7.000;2023-05-07T03:55:55;11.05;;;9.98;;
37973;SDS011;23796;51.458;7.000;2023-05-07T03:58:21;11.82;;;10.73;;
37973;SDS011;23796;51.458;7.000;2023-05-07T04:00:46;12.02;;;10.93;;
37973;SDS011;23796;51.458;7.000;2023-05-07T04:03:13;12.02;;;10.82;;
37973;SDS011;23796;51.458;7.000;2023-05-07T04:05:39;14.07;;;12.68;;
37973;SDS011;23796;51.458;7.000;2023-05-07T04:08:06;12.45;;;11.25;;
37973;SDS011;23796;51.458;7.000;2023-05-07T04:10:32;12.38;;;11.20;;
37973;SDS011;23796;51.458;7.000;2023-05-07T04:12:58;12.32;;;11.10;;
37973;SDS011;23796;51.458;7.000;2023-05-07T04:15:23;12.32;;;11.13;;
37973;SDS011;23796;51.458;7.000;2023-05-07T04:17:49;12.35;;;11.23;;
37973;SDS011;23796;51.458;7.000;2023-05-07T04:20:16;13.18;;;11.98;;
37973;SDS011;23796;51.458;7.000;2023-05-07T04:22:44;11.38;;;10.38;;
37973;SDS011;23796;51.458;7.000;2023-05-07T04:25:12;12.07;;;10.98;;
37973;SDS011;23796;51.458;7.000;2023-05-07T04:27:37;13.32;;;11.45;;
37973;SDS011;23796;51.458;7.000;2023-05-07T04:30:06;13.15;;;11.82;;
37973;SDS011;23796;51.458;7.000;2023-05-07T04:32:34;12.05;;;10.85;;
37973;SDS011;23796;51.458;7.000;2023-05-07T04:35:02;13.73;;;12.32;;
37973;SDS011;23796;51.458;7.000;2023-05-07T04:37:28;11.68;;;10.57;;
37973;SDS011;23796;51.458;7.000;2023-05-07T04:39:56;13.52;;;12.32;;
37973;SDS011;23796;51.458;7.000;2023-05-07T04:42:27;13.65;;;12.32;;
37973;SDS011;23796;51.458;7.000;2023-05-07T04:44:53;12.88;;;11.77;;
37973;SDS011;23796;51.458;7.000;2023-05-07T04:47:19;12.85;;;11.60;;
37973;SDS011;23796;51.458;7.000;2023-05-07T04:49:45;11.93;;;10.82;;
37973;SDS011;23796;51.458;7.000;2023-05-07T04:52:13;14.13;;;12.65;;
37973;SDS011;23796;51.458;7.000;2023-05-07T04:54:41;12.70;;;11.55;;
37973;SDS011;23796;51.458;7.000;2023-05-07T04:57:09;11.75;;;10.65;;
37973;SDS011;23796;51.458;7.000;2023-05-07T04:59:35;12.50;;;11.30;;
37973;SDS011;23796;51.458;7.000;2023-05-07T05:02:01;11.23;;;10.23;;
37973;SDS011;23796;51.458;7.000;2023-05-07T05:04:31;12.50;;;11.30;;
37973;SDS011;23796;51.458;7.000;2023-05-07T05:06:57;12.85;;;11.40;;
37973;SDS011;23796;51.458;7.000;2023-05-07T05:09:23;12.07;;;10.55;;
37973;SDS011;23796;51.458;7.000;2023-05-07T05:11:48;11.15;;;10.15;;
37973;SDS011;23796;51.458;7.000;2023-05-07T05:14:14;11.60;;;10.35;;
37973;SDS011;23796;51.458;7.000;2023-05-07T05:16:39;11.00;;;10.00;;
37973;SDS011;23796;51.458;7.000;2023-05-07T05:19:05;12.25;;;11.02;;
37973;SDS011;23796;51.458;7.000;2023-05-07T05:21:33;10.98;;;9.95;;
37973;SDS011;23796;51.458;7.000;2023-05-07T05:23:58;10.98;;;9.98;;
37973;SDS011;23796;51.458;7.000;2023-05-07T05:26:26;10.85;;;9.75;;
37973;SDS011;23796;51.458;7.000;2023-05-07T05:28:52;10.88;;;9.60;;
37973;SDS011;23796;51.458;7.000;2023-05-07T05:31:19;10.60;;;9.30;;
37973;SDS011;23796;51.458;7.000;2023-05-07T05:33:46;12.10;;;10.90;;
37973;SDS011;23796;51.458;7.000;2023-05-07T05:36:11;10.85;;;9.25;;
37973;SDS011;23796;51.458;7.000;2023-05-07T05:38:38;9.20;;;8.25;;
37973;SDS011;23796;51.458;7.000;2023-05-07T05:41:06;8.32;;;7.53;;
37973;SDS011;23796;51.458;7.000;2023-05-07T05:43:32;10.35;;;8.02;;
37973;SDS011;23796;51.458;7.000;2023-05-07T05:46:00;8.32;;;7.53;;
37973;SDS011;23796;51.458;7.000;2023-05-07T05:48:29;6.90;;;6.20;;
37973;SDS011;23796;51.458;7.000;2023-05-07T05:50:55;7.82;;;7.00;;
37973;SDS011;23796;51.458;7.000;2023-05-07T05:53:20;7.45;;;6.65;;
37973;SDS011;23796;51.458;7.000;2023-05-07T05:55:46;7.82;;;6.00;;
37973;SDS011;23796;51.458;7.000;2023-05-07T05:58:14;7.40;;;6.53;;
37973;SDS011;23796;51.458;7.000;2023-05-07T06:00:40;7.63;;;6.20;;
37973;SDS011;23796;51.458;7.000;2023-05-07T06:03:08;6.82;;;5.93;;
37973;SDS011;23796;51.458;7.000;2023-05-07T06:05:35;6.50;;;5.60;;
37973;SDS011;23796;51.458;7.000;2023-05-07T06:08:01;6.97;;;5.22;;
37973;SDS011;23796;51.458;7.000;2023-05-07T06:10:26;6.72;;;5.13;;
37973;SDS011;23796;51.458;7.000;2023-05-07T06:12:52;6.78;;;4.88;;
37973;SDS011;23796;51.458;7.000;2023-05-07T06:15:17;7.55;;;4.22;;
37973;SDS011;23796;51.458;7.000;2023-05-07T06:17:45;5.38;;;4.70;;
37973;SDS011;23796;51.458;7.000;2023-05-07T06:20:11;4.78;;;4.10;;
37973;SDS011;23796;51.458;7.000;2023-05-07T06:22:39;4.68;;;3.75;;
37973;SDS011;23796;51.458;7.000;2023-05-07T06:25:07;5.78;;;4.07;;
37973;SDS011;23796;51.458;7.000;2023-05-07T06:27:33;5.43;;;3.72;;
37973;SDS011;23796;51.458;7.000;2023-05-07T06:30:01;5.72;;;3.42;;
37973;SDS011;23796;51.458;7.000;2023-05-07T06:32:31;5.18;;;3.55;;
37973;SDS011;23796;51.458;7.000;2023-05-07T06:34:57;5.30;;;3.50;;
37973;SDS011;23796;51.458;7.000;2023-05-07T06:37:25;5.47;;;3.20;;
37973;SDS011;23796;51.458;7.000;2023-05-07T06:39:52;6.22;;;2.88;;
37973;SDS011;23796;51.458;7.000;2023-05-07T06:42:18;5.43;;;3.50;;
37973;SDS011;23796;51.458;7.000;2023-05-07T06:44:44;7.05;;;3.25;;
37973;SDS011;23796;51.458;7.000;2023-05-07T06:47:09;6.57;;;3.13;;
37973;SDS011;23796;51.458;7.000;2023-05-07T06:49:35;4.85;;;3.15;;
37973;SDS011;23796;51.458;7.000;2023-05-07T06:52:01;4.18;;;2.80;;
37973;SDS011;23796;51.458;7.000;2023-05-07T06:54:26;4.53;;;3.00;;
37973;SDS011;23796;51.458;7.000;2023-05-07T06:56:52;4.43;;;2.60;;
37973;SDS011;23796;51.458;7.000;2023-05-07T06:59:18;3.65;;;2.90;;
37973;SDS011;23796;51.458;7.000;2023-05-07T07:01:44;5.35;;;2.60;;
37973;SDS011;23796;51.458;7.000;2023-05-07T07:04:09;3.78;;;2.30;;
37973;SDS011;23796;51.458;7.000;2023-05-07T07:06:35;4.57;;;2.63;;
37973;SDS011;23796;51.458;7.000;2023-05-07T07:09:05;3.97;;;2.50;;
37973;SDS011;23796;51.458;7.000;2023-05-07T07:11:31;3.80;;;2.20;;
37973;SDS011;23796;51.458;7.000;2023-05-07T07:13:59;4.50;;;2.20;;
37973;SDS011;23796;51.458;7.000;2023-05-07T07:16:25;6.20;;;2.70;;
37973;SDS011;23796;51.458;7.000;2023-05-07T07:18:51;4.13;;;2.00;;
37973;SDS011;23796;51.458;7.000;2023-05-07T07:21:19;3.60;;;2.30;;
37973;SDS011;23796;51.458;7.000;2023-05-07T07:23:45;5.10;;;2.40;;
37973;SDS011;23796;51.458;7.000;2023-05-07T07:26:12;3.80;;;2.42;;
37973;SDS011;23796;51.458;7.000;2023-05-07T07:28:44;9.23;;;3.28;;
37973;SDS011;23796;51.458;7.000;2023-05-07T07:31:10;6.40;;;3.55;;
37973;SDS011;23796;51.458;7.000;2023-05-07T07:33:38;4.70;;;2.83;;
37973;SDS011;23796;51.458;7.000;2023-05-07T07:36:05;4.32;;;3.05;;
37973;SDS011;23796;51.458;7.000;2023-05-07T07:38:31;5.45;;;3.13;;
37973;SDS011;23796;51.458;7.000;2023-05-07T07:40:57;5.63;;;3.13;;
37973;SDS011;23796;51.458;7.000;2023-05-07T07:43:23;5.63;;;3.25;;
37973;SDS011;23796;51.458;7.000;2023-05-07T07:45:53;4.72;;;3.03;;
37973;SDS011;23796;51.458;7.000;2023-05-07T07:48:19;6.38;;;3.00;;
37973;SDS011;23796;51.458;7.000;2023-05-07T07:50:44;4.80;;;2.45;;
37973;SDS011;23796;51.458;7.000;2023-05-07T07:53:15;5.28;;;2.65;;
37973;SDS011;23796;51.458;7.000;2023-05-07T07:55:43;6.03;;;2.47;;
37973;SDS011;23796;51.458;7.000;2023-05-07T07:58:08;4.00;;;2.60;;
37973;SDS011;23796;51.458;7.000;2023-05-07T08:00:36;5.05;;;2.80;;
37973;SDS011;23796;51.458;7.000;2023-05-07T08:03:02;3.80;;;2.00;;
37973;SDS011;23796;51.458;7.000;2023-05-07T08:05:31;5.10;;;2.13;;
37973;SDS011;23796;51.458;7.000;2023-05-07T08:07:57;2.95;;;1.98;;
37973;SDS011;23796;51.458;7.000;2023-05-07T08:10:23;5.28;;;2.00;;
37973;SDS011;23796;51.458;7.000;2023-05-07T08:12:53;4.88;;;2.00;;
37973;SDS011;23796;51.458;7.000;2023-05-07T08:15:19;4.82;;;2.28;;
37973;SDS011;23796;51.458;7.000;2023-05-07T08:17:45;4.07;;;2.10;;
37973;SDS011;23796;51.458;7.000;2023-05-07T08:20:10;2.83;;;1.70;;
37973;SDS011;23796;51.458;7.000;2023-05-07T08:22:36;3.85;;;1.92;;
37973;SDS011;23796;51.458;7.000;2023-05-07T08:25:02;3.17;;;1.95;;
37973;SDS011;23796;51.458;7.000;2023-05-07T08:27:30;3.03;;;2.00;;
37973;SDS011;23796;51.458;7.000;2023-05-07T08:29:58;4.15;;;2.00;;
37973;SDS011;23796;51.458;7.000;2023-05-07T08:32:26;4.13;;;1.77;;
37973;SDS011;23796;51.458;7.000;2023-05-07T08:34:54;4.78;;;2.00;;
37973;SDS011;23796;51.458;7.000;2023-05-07T08:37:22;2.85;;;1.63;;
37973;SDS011;23796;51.458;7.000;2023-05-07T08:39:48;4.40;;;1.98;;
37973;SDS011;23796;51.458;7.000;2023-05-07T08:42:18;4.32;;;1.70;;
37973;SDS011;23796;51.458;7.000;2023-05-07T08:44:48;4.60;;;1.95;;
37973;SDS011;23796;51.458;7.000;2023-05-07T08:47:22;5.55;;;1.98;;
37973;SDS011;23796;51.458;7.000;2023-05-07T08:49:54;3.35;;;1.60;;
37973;SDS011;23796;51.458;7.000;2023-05-07T08:52:22;4.75;;;1.90;;
37973;SDS011;23796;51.458;7.000;2023-05-07T08:54:48;3.08;;;1.50;;
37973;SDS011;23796;51.458;7.000;2023-05-07T08:57:16;5.25;;;1.70;;
37973;SDS011;23796;51.458;7.000;2023-05-07T08:59:42;5.20;;;1.83;;
37973;SDS011;23796;51.458;7.000;2023-05-07T09:02:12;3.85;;;1.50;;
37973;SDS011;23796;51.458;7.000;2023-05-07T09:04:37;3.22;;;1.77;;
37973;SDS011;23796;51.458;7.000;2023-05-07T09:07:04;3.30;;;1.73;;
37973;SDS011;23796;51.458;7.000;2023-05-07T09:09:31;3.72;;;1.70;;
37973;SDS011;23796;51.458;7.000;2023-05-07T09:12:00;3.25;;;1.60;;
37973;SDS011;23796;51.458;7.000;2023-05-07T09:14:27;4.68;;;1.80;;
37973;SDS011;23796;51.458;7.000;2023-05-07T09:16:52;3.42;;;1.50;;
37973;SDS011;23796;51.458;7.000;2023-05-07T09:19:22;3.53;;;1.65;;
37973;SDS011;23796;51.458;7.000;2023-05-07T09:21:49;3.60;;;1.30;;
37973;SDS011;23796;51.458;7.000;2023-05-07T09:24:15;4.45;;;2.38;;
37973;SDS011;23796;51.458;7.000;2023-05-07T09:26:43;5.82;;;1.73;;
37973;SDS011;23796;51.458;7.000;2023-05-07T09:29:11;3.30;;;1.58;;
37973;SDS011;23796;51.458;7.000;2023-05-07T09:31:37;4.85;;;1.70;;
37973;SDS011;23796;51.458;7.000;2023-05-07T09:34:04;2.83;;;1.30;;
37973;SDS011;23796;51.458;7.000;2023-05-07T09:36:31;2.67;;;1.50;;
37973;SDS011;23796;51.458;7.000;2023-05-07T09:38:59;4.30;;;1.63;;
37973;SDS011;23796;51.458;7.000;2023-05-07T09:41:27;4.88;;;1.40;;
37973;SDS011;23796;51.458;7.000;2023-05-07T09:43:59;2.40;;;1.25;;
37973;SDS011;23796;51.458;7.000;2023-05-07T09:46:30;2.50;;;1.30;;
37973;SDS011;23796;51.458;7.000;2023-05-07T09:48:58;4.25;;;2.20;;
37973;SDS011;23796;51.458;7.000;2023-05-07T09:51:30;4.53;;;1.67;;
37973;SDS011;23796;51.458;7.000;2023-05-07T09:54:08;3.72;;;1.60;;
37973;SDS011;23796;51.458;7.000;2023-05-07T09:56:35;3.78;;;1.77;;
37973;SDS011;23796;51.458;7.000;2023-05-07T09:59:03;3.85;;;1.45;;
37973;SDS011;23796;51.458;7.000;2023-05-07T10:01:33;2.75;;;1.38;;
37973;SDS011;23796;51.458;7.000;2023-05-07T10:04:01;4.80;;;1.70;;
37973;SDS011;23796;51.458;7.000;2023-05-07T10:06:29;2.63;;;1.30;;
37973;SDS011;23796;51.458;7.000;2023-05-07T10:08:55;3.35;;;1.70;;
37973;SDS011;23796;51.458;7.000;2023-05-07T10:11:22;3.10;;;1.58;;
37973;SDS011;23796;51.458;7.000;2023-05-07T10:13:50;2.92;;;1.40;;
37973;SDS011;23796;51.458;7.000;2023-05-07T10:16:21;3.90;;;2.05;;
37973;SDS011;23796;51.458;7.000;2023-05-07T10:18:49;4.15;;;1.80;;
37973;SDS011;23796;51.458;7.000;2023-05-07T10:21:19;2.83;;;1.40;;
37973;SDS011;23796;51.458;7.000;2023-05-07T10:23:50;4.05;;;1.38;;
37973;SDS011;23796;51.458;7.000;2023-05-07T10:26:22;3.13;;;1.45;;
37973;SDS011;23796;51.458;7.000;2023-05-07T10:28:55;3.42;;;1.20;;
37973;SDS011;23796;51.458;7.000;2023-05-07T10:34:02;3.28;;;1.35;;
37973;SDS011;23796;51.458;7.000;2023-05-07T10:36:36;5.50;;;1.67;;
37973;SDS011;23796;51.458;7.000;2023-05-07T10:39:02;3.72;;;1.17;;
37973;SDS011;23796;51.458;7.000;2023-05-07T10:41:32;3.28;;;1.60;;
37973;SDS011;23796;51.458;7.000;2023-05-07T10:43:57;3.75;;;1.25;;
37973;SDS011;23796;51.458;7.000;2023-05-07T10:46:27;3.45;;;1.60;;
37973;SDS011;23796;51.458;7.000;2023-05-07T10:51:31;3.30;;;1.35;;
37973;SDS011;23796;51.458;7.000;2023-05-07T10:54:18;2.97;;;1.50;;
37973;SDS011;23796;51.458;7.000;2023-05-07T10:56:44;2.63;;;1.60;;
37973;SDS011;23796;51.458;7.000;2023-05-07T11:04:25;3.55;;;1.80;;
37973;SDS011;23796;51.458;7.000;2023-05-07T11:15:11;3.42;;;1.83;;
37973;SDS011;23796;51.458;7.000;2023-05-07T11:17:56;3.70;;;2.00;;
37973;SDS011;23796;51.458;7.000;2023-05-07T11:26:10;3.40;;;2.17;;
37973;SDS011;23796;51.458;7.000;2023-05-07T11:28:37;2.70;;;1.38;;
37973;SDS011;23796;51.458;7.000;2023-05-07T11:31:07;5.78;;;1.90;;
37973;SDS011;23796;51.458;7.000;2023-05-07T11:33:33;6.25;;;2.15;;
37973;SDS011;23796;51.458;7.000;2023-05-07T11:35:59;3.70;;;1.80;;
37973;SDS011;23796;51.458;7.000;2023-05-07T11:38:29;4.05;;;1.58;;
37973;SDS011;23796;51.458;7.000;2023-05-07T11:40:58;2.78;;;1.70;;
37973;SDS011;23796;51.458;7.000;2023-05-07T11:43:25;3.17;;;1.65;;
37973;SDS011;23796;51.458;7.000;2023-05-07T11:45:51;3.25;;;1.73;;
37973;SDS011;23796;51.458;7.000;2023-05-07T11:48:17;3.75;;;1.75;;
37973;SDS011;23796;51.458;7.000;2023-05-07T11:50:52;3.60;;;2.00;;
37973;SDS011;23796;51.458;7.000;2023-05-07T11:53:24;3.88;;;2.00;;
37973;SDS011;23796;51.458;7.000;2023-05-07T11:55:54;2.78;;;1.70;;
37973;SDS011;23796;51.458;7.000;2023-05-07T11:58:21;3.38;;;2.00;;
37973;SDS011;23796;51.458;7.000;2023-05-07T12:00:49;3.53;;;1.90;;
37973;SDS011;23796;51.458;7.000;2023-05-07T12:03:18;4.43;;;1.83;;
37973;SDS011;23796;51.458;7.000;2023-05-07T12:05:44;3.25;;;1.90;;
37973;SDS011;23796;51.458;7.000;2023-05-07T12:08:17;3.95;;;2.00;;
37973;SDS011;23796;51.458;7.000;2023-05-07T12:10:45;4.05;;;2.03;;
37973;SDS011;23796;51.458;7.000;2023-05-07T12:13:16;6.45;;;2.20;;
37973;SDS011;23796;51.458;7.000;2023-05-07T12:15:43;3.63;;;1.60;;
37973;SDS011;23796;51.458;7.000;2023-05-07T12:18:09;4.72;;;1.83;;
37973;SDS011;23796;51.458;7.000;2023-05-07T12:20:36;3.95;;;2.30;;
37973;SDS011;23796;51.458;7.000;2023-05-07T12:23:07;4.32;;;2.10;;
37973;SDS011;23796;51.458;7.000;2023-05-07T12:25:36;4.55;;;2.00;;
37973;SDS011;23796;51.458;7.000;2023-05-07T12:28:12;3.97;;;2.20;;
37973;SDS011;23796;51.458;7.000;2023-05-07T12:30:42;3.40;;;2.03;;
37973;SDS011;23796;51.458;7.000;2023-05-07T12:33:09;4.22;;;2.28;;
37973;SDS011;23796;51.458;7.000;2023-05-07T12:35:36;7.03;;;2.30;;
37973;SDS011;23796;51.458;7.000;2023-05-07T12:38:09;3.42;;;1.95;;
37973;SDS011;23796;51.458;7.000;2023-05-07T12:40:37;3.75;;;2.20;;
37973;SDS011;23796;51.458;7.000;2023-05-07T12:43:03;4.80;;;2.40;;
37973;SDS011;23796;51.458;7.000;2023-05-07T12:45:29;4.32;;;2.47;;
37973;SDS011;23796;51.458;7.000;2023-05-07T12:47:55;3.80;;;2.30;;
37973;SDS011;23796;51.458;7.000;2023-05-07T12:50:26;3.53;;;2.25;;
37973;SDS011;23796;51.458;7.000;2023-05-07T12:52:56;3.20;;;2.20;;
37973;SDS011;23796;51.458;7.000;2023-05-07T12:55:24;3.35;;;1.95;;
37973;SDS011;23796;51.458;7.000;2023-05-07T12:57:50;4.18;;;2.28;;
37973;SDS011;23796;51.458;7.000;2023-05-07T13:00:17;4.00;;;2.13;;
37973;SDS011;23796;51.458;7.000;2023-05-07T13:02:58;3.20;;;2.33;;
37973;SDS011;23796;51.458;7.000;2023-05-07T13:05:23;6.18;;;2.58;;
37973;SDS011;23796;51.458;7.000;2023-05-07T13:07:55;3.83;;;2.50;;
37973;SDS011;23796;51.458;7.000;2023-05-07T13:10:24;4.68;;;2.67;;
37973;SDS011;23796;51.458;7.000;2023-05-07T13:12:50;4.05;;;2.50;;
37973;SDS011;23796;51.458;7.000;2023-05-07T13:15:16;4.65;;;2.50;;
37973;SDS011;23796;51.458;7.000;2023-05-07T13:17:44;4.18;;;2.30;;
37973;SDS011;23796;51.458;7.000;2023-05-07T13:20:13;4.03;;;2.35;;
37973;SDS011;23796;51.458;7.000;2023-05-07T13:22:42;3.67;;;2.20;;
37973;SDS011;23796;51.458;7.000;2023-05-07T13:25:10;4.30;;;2.70;;
37973;SDS011;23796;51.458;7.000;2023-05-07T13:27:35;4.53;;;2.78;;
37973;SDS011;23796;51.458;7.000;2023-05-07T13:30:04;4.15;;;3.25;;
37973;SDS011;23796;51.458;7.000;2023-05-07T13:32:30;6.45;;;3.20;;
37973;SDS011;23796;51.458;7.000;2023-05-07T13:34:58;5.43;;;3.00;;
37973;SDS011;23796;51.458;7.000;2023-05-07T13:39:59;4.18;;;2.60;;
37973;SDS011;23796;51.458;7.000;2023-05-07T13:42:25;3.85;;;2.78;;
37973;SDS011;23796;51.458;7.000;2023-05-07T13:44:50;4.18;;;2.65;;
37973;SDS011;23796;51.458;7.000;2023-05-07T13:47:16;6.28;;;3.33;;
37973;SDS011;23796;51.458;7.000;2023-05-07T13:49:44;4.38;;;2.60;;
37973;SDS011;23796;51.458;7.000;2023-05-07T13:52:14;4.10;;;2.60;;
37973;SDS011;23796;51.458;7.000;2023-05-07T13:54:40;5.35;;;3.50;;
37973;SDS011;23796;51.458;7.000;2023-05-07T13:57:06;6.13;;;3.30;;
37973;SDS011;23796;51.458;7.000;2023-05-07T13:59:37;6.25;;;3.85;;
37973;SDS011;23796;51.458;7.000;2023-05-07T14:02:02;6.97;;;4.40;;
37973;SDS011;23796;51.458;7.000;2023-05-07T14:04:28;8.57;;;4.80;;
37973;SDS011;23796;51.458;7.000;2023-05-07T14:06:55;6.80;;;4.25;;
37973;SDS011;23796;51.458;7.000;2023-05-07T14:09:23;6.47;;;4.15;;
37973;SDS011;23796;51.458;7.000;2023-05-07T14:11:54;7.13;;;4.40;;
37973;SDS011;23796;51.458;7.000;2023-05-07T14:14:19;9.40;;;5.03;;
37973;SDS011;23796;51.458;7.000;2023-05-07T14:16:49;7.43;;;4.93;;
37973;SDS011;23796;51.458;7.000;2023-05-07T14:19:18;7.85;;;4.68;;
37973;SDS011;23796;51.458;7.000;2023-05-07T14:21:50;7.93;;;4.72;;
37973;SDS011;23796;51.458;7.000;2023-05-07T14:24:19;6.03;;;4.80;;
37973;SDS011;23796;51.458;7.000;2023-05-07T14:26:44;7.22;;;5.00;;
37973;SDS011;23796;51.458;7.000;2023-05-07T14:29:12;6.75;;;4.50;;
37973;SDS011;23796;51.458;7.000;2023-05-07T14:31:40;9.05;;;5.05;;
37973;SDS011;23796;51.458;7.000;2023-05-07T14:34:10;8.13;;;5.20;;
37973;SDS011;23796;51.458;7.000;2023-05-07T14:36:36;7.63;;;5.45;;
37973;SDS011;23796;51.458;7.000;2023-05-07T14:39:03;10.43;;;6.07;;
37973;SDS011;23796;51.458;7.000;2023-05-07T14:41:28;7.35;;;5.68;;
37973;SDS011;23796;51.458;7.000;2023-05-07T14:43:57;8.95;;;6.55;;
37973;SDS011;23796;51.458;7.000;2023-05-07T14:46:24;8.45;;;6.00;;
37973;SDS011;23796;51.458;7.000;2023-05-07T14:48:49;8.75;;;6.43;;
37973;SDS011;23796;51.458;7.000;2023-05-07T14:51:15;8.05;;;5.05;;
37973;SDS011;23796;51.458;7.000;2023-05-07T14:53:43;5.50;;;4.45;;
37973;SDS011;23796;51.458;7.000;2023-05-07T14:56:09;5.95;;;4.82;;
37973;SDS011;23796;51.458;7.000;2023-05-07T14:58:39;6.07;;;4.35;;
37973;SDS011;23796;51.458;7.000;2023-05-07T15:01:14;6.32;;;5.00;;
37973;SDS011;23796;51.458;7.000;2023-05-07T15:03:40;7.00;;;5.28;;
37973;SDS011;23796;51.458;7.000;2023-05-07T15:06:08;5.72;;;4.70;;
37973;SDS011;23796;51.458;7.000;2023-05-07T15:08:34;7.00;;;5.30;;
37973;SDS011;23796;51.458;7.000;2023-05-07T15:11:01;8.30;;;5.15;;